Details From LFPO - Paris Orly
To LFLX - Chateauroux Deols
Flight Number -
Tags generated
Created
Modified
Stats Distance 115 nm / 213 km
Max Altitude 9,600 ft / 2,926 m
Waypoints 3
Social Downloads 0
Likes 0
Share VATSIM

Download

Looking for another format? Having issues loading an existing format? Contact us
Advertisement - Login to hide

Notes

Basic altitude profile: - Ascent Rate: 2500ft/min - Ascent Speed: 250kts - Cruise Altitude: 35000ft - Cruise Speed: 420kts - Descent Rate: 1500ft/min - Descent Speed: 250kts Options: - Use NATs: yes - Use PACOTS: yes - Use low airways: yes - Use high airways: yes

Route

LFPO EDOXA LFLX

ID Type Via Altitude Latitude Longitude Leg Dist Tot Dist Heading (true) Name
O LFPO APT - 0 ft / 0 m 48.72636˚ 2.36703˚ - 0 nm - Paris Orly
EDOXA FIX - 9,600 ft / 2,926 m 48.29083˚ 2.20944˚ 26 nm 26 nm 194° / 193° -
O LFLX APT - 0 ft / 0 m 46.86375˚ 1.73167˚ 87 nm 114 nm 193° / 193° Chateauroux Deols

Altitude Profile

Advertisement - Login to hide

LFPO

Details ICAO LFPO (ORY)
Name Paris Orly
Region France
Timezone Europe/Paris (UTC+1.0)
Stats Elevation 291 ft / 89 m (AMSL)
Location 48.726360° 2.367029°
Runways 3
Magnetic Variation 0.599° E

METAR

LFPO 120900Z AUTO 25006KT 9999 FEW034 BKN064 01/M01 Q1010

Decode

TAF

Not found

Departure Runways

ID Width Length Bearing (true) Bearing (mag) Surface Threshold Offset Overrun Length
02 197 ft / 60 m 7,873 ft / 2,400 m 18.29° 17.69° Concrete 0 ft / 0 m 0 ft / 0 m
06 148 ft / 45 m 11,952 ft / 3,643 m 61.78° 61.18° Asphalt 984 ft / 300 m 197 ft / 60 m
08 148 ft / 45 m 10,868 ft / 3,313 m 74.36° 73.76° Concrete 0 ft / 0 m 1,050 ft / 320 m
20 197 ft / 60 m 7,873 ft / 2,400 m 198.30° 197.70° Concrete 0 ft / 0 m 0 ft / 0 m
24 148 ft / 45 m 11,952 ft / 3,643 m 241.81° 241.21° Asphalt 0 ft / 0 m 197 ft / 60 m
26 148 ft / 45 m 10,868 ft / 3,313 m 254.39° 253.79° Concrete 1,427 ft / 435 m 0 ft / 0 m

LFLX

Details ICAO LFLX (CHR)
Name Chateauroux Deols
Region France
Timezone Europe/Paris (UTC+1.0)
Stats Elevation 529 ft / 161 m (AMSL)
Location 46.863750° 1.731667°
Runways 1
Magnetic Variation 0.525° E

METAR

LFLX 120900Z AUTO 22005KT 9000 NSC 01/00 Q1013

Decode

TAF

Not found

Destination Runways

ID Width Length Bearing (true) Bearing (mag) Surface Threshold Offset Overrun Length
04 148 ft / 45 m 11,473 ft / 3,497 m 32.92° 32.40° Concrete 0 ft / 0 m 0 ft / 0 m
22 148 ft / 45 m 11,473 ft / 3,497 m 212.94° 212.42° Concrete 0 ft / 0 m 0 ft / 0 m

Approach Navaids

Runway Type Ident Frequency Range Bearing (true) Bearing (mag) Slope Elevation
22 Localiser CX 110.30 MHz 18 nm / 33 km 213.11° 212.59° - 522 ft / 159 m (AMSL)
22 Glidescope CX 110.30 MHz 10 nm / 19 km 212.93° 212.41° 3.00° 522 ft / 159 m (AMSL)
22 DME CX 110.30 MHz 18 nm / 33 km - - - 577 ft / 176 m (AMSL)

Popular Alternatives